createdAt,value
2022-11-02T00:04:09.556Z,68.70
2022-11-02T00:09:12.849Z,68.70
2022-11-02T00:14:17.526Z,69.00
2022-11-02T00:19:21.188Z,68.90
2022-11-02T00:24:24.553Z,68.70
2022-11-02T00:29:33.638Z,68.70
2022-11-02T00:34:37.655Z,68.70
2022-11-02T00:39:41.019Z,68.70
2022-11-02T00:44:45.757Z,68.60
2022-11-02T00:49:49.378Z,68.60
2022-11-02T00:54:52.714Z,68.70
2022-11-02T00:59:57.352Z,68.60
2022-11-02T01:05:01.417Z,68.40
2022-11-02T01:10:05.347Z,68.30
2022-11-02T01:15:11.422Z,68.40
2022-11-02T01:20:15.237Z,68.40
2022-11-02T01:25:18.795Z,68.50
2022-11-02T01:30:23.705Z,68.40
2022-11-02T01:35:27.060Z,68.50
2022-11-02T01:40:39.139Z,68.60
2022-11-02T01:45:44.419Z,68.90
2022-11-02T01:50:48.447Z,69.00
2022-11-02T01:55:52.801Z,69.20
2022-11-02T02:00:57.586Z,69.40
2022-11-02T02:06:06.799Z,69.50
2022-11-02T02:11:26.883Z,69.70
2022-11-02T02:22:06.461Z,70.20
2022-11-02T02:27:16.793Z,70.80
2022-11-02T02:32:28.996Z,71.40
2022-11-02T02:37:38.936Z,72.00
2022-11-02T02:42:47.720Z,72.50
2022-11-02T02:47:59.166Z,72.70
2022-11-02T02:53:05.482Z,72.40
2022-11-02T02:58:14.107Z,72.00
2022-11-02T03:03:22.291Z,71.70
2022-11-02T03:08:26.023Z,71.50
2022-11-02T03:13:43.649Z,71.40
2022-11-02T03:18:54.455Z,71.30
2022-11-02T03:24:02.283Z,71.40
2022-11-02T03:29:10.746Z,71.20
2022-11-02T03:34:23.773Z,71.00
2022-11-02T03:39:39.217Z,71.10
2022-11-02T03:44:43.190Z,71.00
2022-11-02T03:49:50.387Z,71.00
2022-11-02T03:55:03.209Z,71.00
2022-11-02T04:00:12.303Z,71.10
2022-11-02T04:05:17.844Z,71.20
2022-11-02T04:10:22.012Z,71.40
2022-11-02T04:15:25.360Z,71.30
2022-11-02T04:20:29.991Z,71.30
2022-11-02T04:25:33.670Z,71.40
2022-11-02T04:30:37.174Z,71.30
2022-11-02T04:35:42.128Z,71.30
2022-11-02T04:40:45.884Z,71.30
2022-11-02T04:45:49.145Z,71.30
2022-11-02T04:50:53.813Z,71.30
2022-11-02T04:55:57.132Z,71.50
2022-11-02T05:01:05.069Z,71.40
2022-11-02T05:06:11.641Z,71.60
2022-11-02T05:11:15.832Z,71.50
2022-11-02T05:16:19.195Z,71.50
2022-11-02T05:21:23.897Z,71.60
2022-11-02T05:26:27.456Z,71.80
2022-11-02T05:31:31.083Z,71.90
2022-11-02T05:36:35.741Z,71.80
2022-11-02T05:41:39.066Z,71.70
2022-11-02T05:46:44.366Z,71.80
2022-11-02T05:51:49.240Z,72.20
2022-11-02T05:56:52.775Z,73.20
2022-11-02T06:01:56.434Z,72.10
2022-11-02T06:07:01.142Z,71.90
2022-11-02T06:12:04.960Z,71.80
2022-11-02T06:17:08.331Z,71.50
2022-11-02T06:22:13.229Z,71.90
2022-11-02T06:27:16.799Z,72.10
2022-11-02T06:32:20.951Z,72.00
2022-11-02T06:37:25.627Z,72.50
2022-11-02T06:42:29.316Z,72.90
2022-11-02T06:47:33.416Z,72.90
2022-11-02T06:52:44.388Z,72.90
2022-11-02T06:57:47.976Z,72.90
2022-11-02T07:03:00.731Z,72.70
2022-11-02T07:08:06.301Z,73.50
2022-11-02T07:13:09.841Z,72.30
2022-11-02T07:18:13.922Z,72.90
2022-11-02T07:23:18.731Z,71.90
2022-11-02T07:28:22.160Z,71.70
2022-11-02T07:33:25.559Z,71.80
2022-11-02T07:38:30.249Z,71.70
2022-11-02T07:43:33.855Z,71.70
2022-11-02T07:48:37.110Z,71.60
2022-11-02T07:53:41.809Z,71.60
2022-11-02T07:58:45.542Z,71.50
2022-11-02T08:03:48.884Z,71.50
2022-11-02T08:08:53.842Z,71.50
2022-11-02T08:14:17.185Z,71.40
2022-11-02T08:19:20.501Z,71.40
2022-11-02T08:24:25.257Z,71.30
2022-11-02T08:29:28.652Z,71.20
2022-11-02T08:34:32.038Z,71.00
2022-11-02T08:39:36.820Z,70.90
2022-11-02T08:44:42.740Z,70.50
2022-11-02T08:49:48.082Z,70.50
2022-11-02T08:54:52.827Z,69.50
2022-11-02T08:59:56.553Z,69.20
2022-11-02T09:04:59.979Z,69.20
2022-11-02T09:10:05.636Z,67.10
2022-11-02T09:15:09.963Z,66.50
2022-11-02T09:20:13.716Z,66.00
2022-11-02T09:25:19.419Z,65.00
2022-11-02T09:30:24.103Z,65.10
2022-11-02T09:35:28.968Z,64.20
2022-11-02T09:40:39.003Z,63.50
2022-11-02T09:45:54.070Z,63.60
2022-11-02T09:51:04.440Z,61.00
2022-11-02T09:56:11.113Z,60.50
2022-11-02T10:01:25.198Z,60.50
2022-11-02T10:06:30.415Z,60.90
2022-11-02T10:11:48.570Z,58.50
2022-11-02T10:16:58.475Z,59.10
2022-11-02T10:22:02.442Z,57.90
2022-11-02T10:27:16.144Z,58.00
2022-11-02T10:32:19.823Z,55.80
2022-11-02T10:37:39.463Z,54.10
2022-11-02T10:43:01.218Z,53.90
2022-11-02T10:48:12.075Z,54.20
2022-11-02T10:58:49.302Z,53.10
2022-11-02T11:03:58.676Z,53.00
2022-11-02T11:09:06.513Z,52.50
2022-11-02T11:19:49.274Z,52.80
2022-11-02T11:24:53.118Z,52.30
2022-11-02T11:30:00.111Z,51.30
2022-11-02T11:35:06.436Z,51.80
2022-11-02T11:40:20.722Z,52.10
2022-11-02T11:45:27.907Z,51.00
2022-11-02T11:50:31.464Z,50.40
2022-11-02T11:55:36.108Z,50.20
2022-11-02T12:00:40.877Z,50.40
2022-11-02T12:05:55.772Z,50.30
2022-11-02T12:11:18.951Z,51.10
2022-11-02T12:16:35.221Z,49.40
2022-11-02T12:21:48.085Z,49.50
2022-11-02T12:27:02.451Z,47.00
2022-11-02T12:32:18.914Z,47.60
2022-11-02T12:37:40.424Z,47.50
2022-11-02T12:42:53.004Z,47.40
2022-11-02T12:48:00.299Z,47.20
2022-11-02T12:53:13.659Z,48.10
2022-11-02T12:58:22.168Z,47.00
2022-11-02T13:03:36.021Z,47.60
2022-11-02T13:08:45.587Z,45.80
2022-11-02T13:13:53.119Z,47.20
2022-11-02T13:18:59.668Z,46.10
2022-11-02T13:24:03.436Z,45.50
2022-11-02T13:29:13.289Z,45.70
2022-11-02T13:34:24.012Z,45.80
2022-11-02T13:39:34.758Z,45.90
2022-11-02T13:45:03.139Z,46.60
2022-11-02T13:50:13.799Z,47.70
2022-11-02T13:55:22.697Z,48.40
2022-11-02T14:00:31.695Z,48.90
2022-11-02T14:05:44.660Z,49.90
2022-11-02T14:11:04.722Z,50.60
2022-11-02T14:16:09.891Z,51.20
2022-11-02T14:21:43.139Z,51.10
2022-11-02T14:26:58.035Z,51.30
2022-11-02T14:32:06.778Z,51.20
2022-11-02T14:37:34.397Z,51.30
2022-11-02T14:43:08.147Z,51.30
2022-11-02T14:48:16.853Z,51.50
2022-11-02T14:53:27.339Z,51.30
2022-11-02T14:58:35.014Z,51.20
2022-11-02T15:03:41.310Z,51.40
2022-11-02T15:08:54.331Z,51.70
2022-11-02T15:13:57.721Z,52.00
2022-11-02T15:19:34.333Z,51.90
2022-11-02T15:24:40.138Z,52.30
2022-11-02T15:29:45.241Z,52.20
2022-11-02T15:34:50.994Z,52.30
2022-11-02T15:39:58.082Z,52.50
2022-11-02T15:51:01.109Z,52.80
2022-11-02T15:56:18.025Z,52.90
2022-11-02T16:01:23.121Z,52.90
2022-11-02T16:06:28.419Z,52.90
2022-11-02T16:11:33.207Z,52.90
2022-11-02T16:16:47.330Z,53.20
2022-11-02T16:21:51.520Z,53.20
2022-11-02T16:26:56.298Z,53.30
2022-11-02T16:32:00.507Z,53.40
2022-11-02T16:37:09.134Z,53.40
2022-11-02T16:42:22.625Z,53.60
2022-11-02T16:47:41.350Z,53.60
2022-11-02T16:52:55.065Z,53.60
2022-11-02T16:58:03.359Z,53.50
2022-11-02T17:03:15.534Z,53.50
2022-11-02T17:08:31.551Z,53.70
2022-11-02T17:13:44.326Z,54.10
2022-11-02T17:18:48.199Z,54.80
2022-11-02T17:23:52.283Z,55.30
2022-11-02T17:28:58.523Z,55.40
2022-11-02T17:34:08.939Z,55.30
2022-11-02T17:39:14.561Z,55.30
2022-11-02T17:44:19.235Z,55.30
2022-11-02T17:49:22.639Z,55.30
2022-11-02T17:54:26.168Z,55.40
2022-11-02T17:59:30.869Z,56.10
2022-11-02T18:04:34.647Z,56.80
2022-11-02T18:09:38.101Z,57.50
2022-11-02T18:14:43.712Z,58.70
2022-11-02T18:19:47.402Z,59.50
2022-11-02T18:24:51.187Z,59.90
2022-11-02T18:29:55.948Z,60.30
2022-11-02T18:34:59.701Z,60.70
2022-11-02T18:40:03.316Z,61.40
2022-11-02T18:45:10.121Z,62.00
2022-11-02T18:50:14.607Z,62.60
2022-11-02T18:55:18.516Z,62.70
2022-11-02T19:00:24.068Z,62.90
2022-11-02T19:05:45.177Z,63.00
2022-11-02T19:10:49.033Z,62.70
2022-11-02T19:15:53.856Z,62.70
2022-11-02T19:20:57.230Z,62.70
2022-11-02T19:26:00.693Z,63.70
2022-11-02T19:31:08.301Z,62.60
2022-11-02T19:36:12.060Z,62.40
2022-11-02T19:41:16.995Z,62.20
2022-11-02T19:46:23.257Z,61.90
2022-11-02T19:51:28.509Z,61.60
2022-11-02T19:56:33.878Z,61.40
2022-11-02T20:01:42.076Z,62.10
2022-11-02T20:06:46.010Z,61.00
2022-11-02T20:11:49.427Z,60.90
2022-11-02T20:17:10.614Z,60.80
2022-11-02T20:22:18.433Z,60.70
2022-11-02T20:27:21.923Z,60.70
2022-11-02T20:32:26.771Z,60.50
2022-11-02T20:37:30.598Z,60.20
2022-11-02T20:42:36.232Z,60.20
2022-11-02T20:47:41.378Z,60.10
2022-11-02T20:52:45.743Z,60.10
2022-11-02T20:57:49.995Z,59.90
2022-11-02T21:02:54.835Z,59.80
2022-11-02T21:07:58.250Z,59.90
2022-11-02T21:13:19.296Z,60.00
2022-11-02T21:18:24.319Z,60.10
2022-11-02T21:23:27.684Z,60.00
2022-11-02T21:28:31.908Z,60.00
2022-11-02T21:33:36.857Z,59.80
2022-11-02T21:38:40.998Z,59.70
2022-11-02T21:43:44.928Z,59.70
2022-11-02T21:48:49.924Z,59.80
2022-11-02T21:53:53.758Z,59.80
2022-11-02T21:58:57.207Z,59.60
2022-11-02T22:04:02.966Z,59.60
2022-11-02T22:09:08.411Z,59.70
2022-11-02T22:14:12.920Z,59.70
2022-11-02T22:19:17.719Z,59.70
2022-11-02T22:24:21.764Z,59.70
2022-11-02T22:29:25.192Z,60.60
2022-11-02T22:34:30.172Z,59.70
2022-11-02T22:39:33.786Z,59.80
2022-11-02T22:44:37.471Z,59.80
2022-11-02T22:49:42.784Z,60.00
2022-11-02T22:54:46.449Z,60.20
2022-11-02T22:59:49.827Z,60.60
2022-11-02T23:04:54.573Z,60.60
2022-11-02T23:09:58.234Z,60.70
2022-11-02T23:15:01.934Z,60.60
2022-11-02T23:20:07.634Z,60.80
2022-11-02T23:25:15.196Z,60.70
2022-11-02T23:30:36.334Z,60.70
2022-11-02T23:35:58.759Z,61.10
2022-11-02T23:41:02.354Z,61.30
2022-11-02T23:46:06.381Z,61.20
2022-11-02T23:51:29.086Z,60.90
2022-11-02T23:56:46.469Z,60.80
